Time;durP1;ratioP1;P1;durP2;ratioP2;P2;SDS_P1;SDS_P2;PMS_P1;PMS_P2;Temp;Humidity;BMP_temperature;BMP_pressure;BME280_temperature;BME280_humidity;BME280_pressure;Samples;Min_cycle;Max_cycle;Signal;HPM_P1;HPM_P2
2021/12/01 05:03:08;;;;;;;0.80;0.80;;;;;;;7.88;67.32;99690.69;5606876;31;94719;-57
2021/12/01 05:06:25;;;;;;;1.35;0.90;;;;;;;7.88;67.32;99690.69;5591461;31;33479;-57
2021/12/01 05:09:27;;;;;;;1.02;0.80;;;;;;;7.51;69.38;99686.69;5589505;31;33705;-58
2021/12/01 05:12:29;;;;;;;1.70;0.80;;;;;;;7.49;66.98;99702.19;5603356;31;34316;-58
2021/12/01 05:15:31;;;;;;;1.60;0.90;;;;;;;7.53;68.38;99703.22;5603035;31;33717;-58
2021/12/01 05:18:34;;;;;;;1.10;0.88;;;;;;;7.44;67.19;99708.34;5581608;31;33100;-57
2021/12/01 05:21:37;;;;;;;1.35;0.90;;;;;;;7.44;67.78;99707.53;5589065;31;33657;-58
2021/12/01 05:24:40;;;;;;;2.25;1.15;;;;;;;7.66;68.75;99720.50;5598324;31;33422;-57
2021/12/01 05:27:42;;;;;;;1.35;1.10;;;;;;;7.73;71.12;99723.66;5563938;32;33549;-58
2021/12/01 05:30:45;;;;;;;1.35;1.02;;;;;;;7.71;67.55;99726.56;5563988;32;33623;-58
2021/12/01 05:33:47;;;;;;;1.33;1.05;;;;;;;7.71;68.60;99742.59;5571530;31;33704;-58
2021/12/01 05:36:51;;;;;;;1.50;1.20;;;;;;;7.82;75.50;99756.69;5599684;31;33577;-58
2021/12/01 05:39:53;;;;;;;2.72;1.40;;;;;;;7.70;67.85;99757.00;5572257;31;34278;-58
2021/12/01 05:42:55;;;;;;;4.45;1.40;;;;;;;7.71;67.62;99753.25;5569923;31;33389;-58
2021/12/01 05:45:58;;;;;;;2.75;1.80;;;;;;;7.61;69.50;99752.53;5583884;31;33682;-58
2021/12/01 05:49:00;;;;;;;2.90;1.77;;;;;;;7.63;68.06;99761.84;5602886;31;33688;-57
2021/12/01 05:52:03;;;;;;;3.03;1.62;;;;;;;7.62;68.10;99757.59;5578838;31;33658;-58
2021/12/01 05:55:06;;;;;;;2.58;1.50;;;;;;;7.56;67.74;99773.91;5579511;31;33663;-58
2021/12/01 05:58:08;;;;;;;1.87;1.40;;;;;;;7.64;68.59;99775.97;5577955;32;34502;-58
2021/12/01 06:01:10;;;;;;;2.90;1.80;;;;;;;7.61;68.27;99785.31;5567541;32;33707;-57
2021/12/01 06:04:13;;;;;;;2.78;1.55;;;;;;;7.53;68.69;99789.38;5567992;31;33586;-57
2021/12/01 06:07:15;;;;;;;1.58;1.30;;;;;;;7.70;73.95;99793.56;5567558;31;34236;-58
2021/12/01 06:10:17;;;;;;;2.22;1.73;;;;;;;7.77;67.96;99796.72;5563427;32;33671;-57
2021/12/01 06:13:20;;;;;;;1.92;1.52;;;;;;;7.70;68.46;99796.22;5565091;31;32182;-58
2021/12/01 06:16:27;;;;;;;3.33;1.95;;;;;;;7.76;68.42;99803.13;5561715;32;34369;-57
2021/12/01 06:19:29;;;;;;;2.40;2.00;;;;;;;7.73;68.60;99817.03;5565296;32;33682;-58
2021/12/01 06:22:32;;;;;;;2.17;1.70;;;;;;;7.75;68.26;99821.03;5549971;32;33562;-58
2021/12/01 06:25:35;;;;;;;3.50;2.00;;;;;;;7.94;68.69;99829.16;5550260;32;34310;-57
2021/12/01 06:28:40;;;;;;;3.65;1.80;;;;;;;7.87;68.25;99835.91;5549523;31;33652;-58
2021/12/01 06:31:43;;;;;;;4.70;2.33;;;;;;;7.95;70.07;99835.34;5560997;32;33590;-57
2021/12/01 06:34:45;;;;;;;6.22;2.72;;;;;;;8.02;67.61;99838.50;5556350;32;34490;-58
2021/12/01 06:37:50;;;;;;;7.05;3.12;;;;;;;7.96;67.64;99842.25;5557734;32;33761;-57
2021/12/01 06:40:53;;;;;;;6.93;3.73;;;;;;;7.94;68.46;99852.41;5557242;32;35259;-57
2021/12/01 06:43:55;;;;;;;7.45;3.25;;;;;;;7.96;68.12;99858.28;5564091;32;34299;-57
2021/12/01 06:46:59;;;;;;;4.10;2.50;;;;;;;8.12;77.66;99859.00;5566899;32;34297;-58
2021/12/01 06:50:03;;;;;;;4.40;2.30;;;;;;;8.06;70.98;99854.75;5559409;32;33694;-57
2021/12/01 06:53:06;;;;;;;4.70;2.80;;;;;;;8.06;68.31;99849.41;5552489;32;33599;-57
2021/12/01 06:56:09;;;;;;;4.82;3.03;;;;;;;7.98;67.66;99846.25;5551133;32;34240;-58
2021/12/01 06:59:12;;;;;;;2.53;1.92;;;;;;;7.95;68.86;99848.69;5555765;32;33665;-57
2021/12/01 07:02:16;;;;;;;3.00;1.98;;;;;;;8.02;67.78;99851.84;5552608;32;33570;-58
2021/12/01 07:05:19;;;;;;;2.72;1.67;;;;;;;7.95;68.48;99856.69;5554931;32;33646;-58
2021/12/01 07:08:21;;;;;;;2.62;1.83;;;;;;;7.96;70.85;99858.28;5559467;32;34319;-57
2021/12/01 07:11:24;;;;;;;4.05;2.30;;;;;;;7.83;68.36;99862.34;5552907;32;34314;-58
2021/12/01 07:14:27;;;;;;;4.18;2.15;;;;;;;7.73;68.74;99857.03;5550954;32;33576;-58
2021/12/01 07:17:30;;;;;;;2.22;1.70;;;;;;;7.74;68.50;99859.44;5550028;32;34323;-57
2021/12/01 07:20:35;;;;;;;3.95;2.08;;;;;;;7.77;68.94;99856.22;5559010;32;35139;-58
2021/12/01 07:23:38;;;;;;;3.90;2.22;;;;;;;7.87;69.65;99843.91;5564510;32;34013;-57
2021/12/01 07:26:40;;;;;;;3.67;2.20;;;;;;;7.96;69.71;99836.91;5568921;32;33780;-57
2021/12/01 07:29:45;;;;;;;3.35;2.33;;;;;;;8.08;68.35;99824.03;5557788;32;34268;-58
2021/12/01 07:32:49;;;;;;;4.37;2.17;;;;;;;8.07;69.74;99805.63;5554351;32;33680;-57
2021/12/01 07:35:52;;;;;;;3.70;2.37;;;;;;;8.18;66.84;99812.50;5562314;32;33599;-58
2021/12/01 07:38:58;;;;;;;3.20;2.15;;;;;;;8.22;68.26;99811.66;5553520;32;34353;-58
2021/12/01 07:42:00;;;;;;;3.87;2.40;;;;;;;8.15;68.90;99834.41;5552017;32;34389;-57
2021/12/01 07:45:04;;;;;;;3.97;2.85;;;;;;;8.16;68.86;99847.47;5557928;32;33207;-58
2021/12/01 07:48:07;;;;;;;3.65;2.22;;;;;;;8.24;70.17;99852.25;5565555;32;34318;-58
2021/12/01 07:51:09;;;;;;;3.60;2.17;;;;;;;8.41;77.27;99843.03;5566438;32;33746;-58
2021/12/01 07:54:12;;;;;;;3.62;2.25;;;;;;;8.34;69.81;99840.66;5554519;32;33615;-58
2021/12/01 07:57:15;;;;;;;6.10;2.40;;;;;;;8.33;70.14;99833.72;5557161;32;32144;-58
2021/12/01 08:00:17;;;;;;;5.80;2.67;;;;;;;8.43;69.94;99838.22;5553097;32;33698;-57
2021/12/01 08:03:20;;;;;;;4.93;2.92;;;;;;;8.38;68.98;99840.97;5560305;32;34281;-57
2021/12/01 08:06:25;;;;;;;6.45;3.15;;;;;;;8.36;69.91;99841.19;5562627;32;33697;-58
2021/12/01 08:09:27;;;;;;;7.03;3.40;;;;;;;8.39;69.36;99843.34;5568446;32;33425;-58
2021/12/01 08:12:34;;;;;;;5.07;2.83;;;;;;;8.40;72.37;99834.25;5567656;32;34240;-58
2021/12/01 08:15:37;;;;;;;4.25;2.50;;;;;;;8.59;69.54;99826.34;5562432;32;33554;-57
2021/12/01 08:18:39;;;;;;;3.78;2.35;;;;;;;8.48;71.42;99819.50;5552179;32;33722;-58
2021/12/01 08:21:46;;;;;;;4.55;2.62;;;;;;;8.51;69.39;99813.62;5550506;32;34450;-58
2021/12/01 08:24:49;;;;;;;;;;;;;;;8.53;70.44;99807.97;5552810;32;33622;-58
2021/12/01 08:27:51;;;;;;;2.83;1.90;;;;;;;8.61;70.38;99810.03;5548397;32;33953;-58
2021/12/01 08:30:53;;;;;;;4.47;2.50;;;;;;;8.45;69.84;99799.50;5549021;32;34248;-57
2021/12/01 08:33:56;;;;;;;2.70;1.98;;;;;;;8.52;70.67;99798.38;5547864;32;33734;-58
2021/12/01 08:36:58;;;;;;;2.80;1.90;;;;;;;8.62;69.75;99798.28;5547587;32;33694;-58
2021/12/01 08:40:00;;;;;;;3.80;2.20;;;;;;;8.60;72.00;99798.53;5548372;32;34179;-58
2021/12/01 08:43:03;;;;;;;4.25;2.00;;;;;;;8.78;75.03;99807.75;5547442;32;33655;-57
2021/12/01 08:46:06;;;;;;;3.33;2.30;;;;;;;8.63;73.52;99803.34;5555883;32;33700;-58
2021/12/01 08:49:08;;;;;;;5.57;2.60;;;;;;;8.83;74.15;99810.37;5563902;32;33687;-58
2021/12/01 08:52:11;;;;;;;4.82;2.80;;;;;;;8.82;72.90;99814.12;5563215;32;33150;-58
2021/12/01 08:55:13;;;;;;;4.85;2.65;;;;;;;8.85;75.40;99826.13;5555958;32;33670;-58
2021/12/01 08:58:36;;;;;;;4.07;2.55;;;;;;;8.83;82.90;99833.63;5562395;31;34303;-57
2021/12/01 09:01:38;;;;;;;4.47;2.60;;;;;;;8.87;82.54;99834.66;5548461;32;33321;-57
2021/12/01 09:04:41;;;;;;;5.18;2.92;;;;;;;8.98;77.48;99819.34;5548682;32;34242;-58
2021/12/01 09:07:43;;;;;;;5.82;3.08;;;;;;;8.94;74.71;99825.25;5548504;32;33960;-58
2021/12/01 09:10:46;;;;;;;4.93;2.72;;;;;;;9.02;76.18;99818.47;5552672;32;34390;-58
2021/12/01 09:13:48;;;;;;;4.37;3.22;;;;;;;8.97;78.08;99812.38;5566109;32;34162;-57
2021/12/01 09:16:57;;;;;;;4.45;2.80;;;;;;;9.04;77.61;99812.81;5566968;32;33725;-58
2021/12/01 09:20:01;;;;;;;5.22;3.20;;;;;;;9.13;80.73;99814.59;5548345;32;33670;-58
2021/12/01 09:23:04;;;;;;;5.25;3.00;;;;;;;9.43;74.34;99807.31;5547931;32;34462;-57
2021/12/01 09:26:06;;;;;;;4.97;3.25;;;;;;;9.55;79.34;99801.56;5553593;32;33622;-57
2021/12/01 09:29:09;;;;;;;4.72;3.15;;;;;;;9.47;75.72;99800.31;5557892;32;33927;-58
2021/12/01 09:32:12;;;;;;;3.53;2.58;;;;;;;9.39;75.28;99793.72;5552744;32;35961;-58
2021/12/01 09:35:15;;;;;;;4.20;2.87;;;;;;;9.40;73.30;99784.62;5552714;32;33643;-57
2021/12/01 09:38:18;;;;;;;4.82;2.65;;;;;;;9.29;73.74;99788.47;5556496;32;34207;-57
2021/12/01 09:41:21;;;;;;;6.85;4.18;;;;;;;9.27;73.06;99789.84;5554320;32;34429;-58
2021/12/01 09:44:24;;;;;;;5.70;4.15;;;;;;;9.33;74.12;99799.41;5559846;31;31741;-58
2021/12/01 09:47:26;;;;;;;8.98;5.20;;;;;;;9.46;86.37;99790.69;5555761;31;34410;-58
2021/12/01 09:50:29;;;;;;;6.93;4.32;;;;;;;9.73;73.51;99786.59;5561954;31;33664;-58
2021/12/01 09:53:32;;;;;;;12.27;5.25;;;;;;;9.83;72.48;99775.75;5567043;31;33875;-58
2021/12/01 09:56:34;;;;;;;7.07;4.28;;;;;;;9.85;76.20;99760.97;5559794;31;34886;-58
2021/12/01 09:59:36;;;;;;;6.93;4.40;;;;;;;9.83;83.48;99760.50;5564815;31;33734;-58
2021/12/01 10:02:39;;;;;;;9.00;3.92;;;;;;;9.88;74.42;99754.25;5565273;31;33667;-57
2021/12/01 10:05:59;;;;;;;8.20;3.55;;;;;;;9.80;74.94;99760.25;5561185;31;33730;-57
2021/12/01 10:09:07;;;;;;;5.40;3.67;;;;;;;9.82;78.23;99750.84;5564198;31;33648;-58
2021/12/01 10:12:10;;;;;;;6.80;3.65;;;;;;;9.65;71.15;99758.59;5556224;31;33794;-57
2021/12/01 10:15:12;;;;;;;8.00;3.90;;;;;;;9.47;71.04;99754.03;5555322;31;34004;-57
2021/12/01 10:18:16;;;;;;;5.62;3.72;;;;;;;9.34;71.61;99758.22;5562876;31;33651;-58
2021/12/01 10:21:30;;;;;;;5.35;3.95;;;;;;;9.34;69.99;99745.62;5558950;32;33330;-57
2021/12/01 10:24:36;;;;;;;6.90;4.22;;;;;;;9.34;72.06;99752.88;5555789;32;33610;-57
2021/12/01 10:27:39;;;;;;;7.13;3.90;;;;;;;9.22;71.15;99753.28;5563751;32;33344;-57
2021/12/01 10:30:44;;;;;;;8.27;4.30;;;;;;;9.32;69.26;99763.03;5561209;32;34393;-57
2021/12/01 10:33:46;;;;;;;6.75;4.80;;;;;;;9.28;69.94;99765.50;5556321;32;32415;-58
2021/12/01 10:37:05;;;;;;;8.25;4.32;;;;;;;9.27;70.62;99758.56;5564563;31;32409;-58
2021/12/01 10:40:10;;;;;;;9.20;5.25;;;;;;;9.24;68.61;99756.47;5570403;31;33579;-57
2021/12/01 10:43:16;;;;;;;9.77;4.72;;;;;;;9.41;68.21;99758.66;5559425;31;34351;-58
2021/12/01 10:46:20;;;;;;;5.87;4.05;;;;;;;9.33;67.44;99757.41;5568960;31;34359;-57
2021/12/01 10:49:35;;;;;;;7.53;4.45;;;;;;;9.28;67.48;99751.34;5577104;31;33653;-58
2021/12/01 10:52:39;;;;;;;8.13;4.25;;;;;;;9.26;67.42;99743.59;5566765;32;33260;-58
2021/12/01 10:55:48;;;;;;;8.00;5.05;;;;;;;9.32;67.81;99741.66;5563959;32;33572;-58
2021/12/01 10:58:50;;;;;;;7.10;4.28;;;;;;;9.50;67.58;99740.06;5555347;32;33678;-58
2021/12/01 11:02:09;;;;;;;7.70;4.70;;;;;;;9.49;67.62;99733.94;5562502;32;33120;-57
2021/12/01 11:05:35;;;;;;;6.22;4.18;;;;;;;9.55;67.36;99730.09;5560592;32;33708;-58
2021/12/01 11:08:41;;;;;;;6.47;4.00;;;;;;;9.91;67.95;99726.13;5562888;32;34120;-58
2021/12/01 11:11:50;;;;;;;7.20;4.62;;;;;;;9.84;66.54;99713.09;5551396;31;33679;-57
2021/12/01 11:15:16;;;;;;;6.68;4.35;;;;;;;9.87;65.17;99723.22;5556415;32;34800;-58
2021/12/01 11:18:21;;;;;;;6.40;4.80;;;;;;;9.64;65.40;99716.88;5564203;32;33764;-58
2021/12/01 11:21:41;;;;;;;8.02;4.82;;;;;;;9.63;66.53;99713.41;5550817;32;33250;-57
2021/12/01 11:24:43;;;;;;;8.77;5.22;;;;;;;9.67;66.24;99702.91;5555148;32;33696;-58
2021/12/01 11:27:46;;;;;;;7.22;4.85;;;;;;;9.65;69.91;99689.81;5550309;32;33800;-58
2021/12/01 11:30:53;;;;;;;7.65;4.55;;;;;;;9.81;66.68;99682.34;5551346;32;33641;-57
2021/12/01 11:34:03;;;;;;;6.85;4.50;;;;;;;9.87;65.27;99667.81;5547449;32;33282;-58
2021/12/01 11:37:06;;;;;;;8.52;4.75;;;;;;;10.01;64.56;99662.47;5555051;32;33683;-58
2021/12/01 11:40:09;;;;;;;6.90;4.00;;;;;;;9.97;63.81;99664.16;5567198;32;33725;-57
2021/12/01 11:43:14;;;;;;;6.62;3.92;;;;;;;10.00;63.61;99639.47;5559431;32;33789;-58
2021/12/01 11:46:18;;;;;;;7.18;3.92;;;;;;;10.01;62.86;99629.56;5550961;32;33667;-58
2021/12/01 11:49:22;;;;;;;7.53;4.07;;;;;;;9.99;67.29;99635.19;5559080;32;34340;-58
2021/12/01 11:52:41;;;;;;;6.90;4.50;;;;;;;10.22;65.87;99625.41;5564320;32;33688;-57
2021/12/01 11:55:58;;;;;;;7.90;4.40;;;;;;;10.20;64.00;99622.25;5551521;32;34570;-57
2021/12/01 11:59:04;;;;;;;6.97;4.28;;;;;;;10.20;63.01;99600.00;5562863;32;34389;-58
2021/12/01 12:02:15;;;;;;;11.75;4.47;;;;;;;10.19;62.73;99595.75;5548951;32;34405;-58
2021/12/01 12:05:18;;;;;;;9.43;4.00;;;;;;;10.23;63.88;99594.06;5548958;32;34323;-57
2021/12/01 12:08:54;;;;;;;9.98;4.32;;;;;;;10.10;60.48;99596.47;5558605;32;33661;-58
2021/12/01 12:12:00;;;;;;;6.82;4.35;;;;;;;10.22;66.08;99582.56;5549670;32;33714;-58
2021/12/01 12:15:02;;;;;;;7.03;4.32;;;;;;;10.35;63.80;99573.75;5555730;32;33674;-58
2021/12/01 12:18:07;;;;;;;8.05;3.90;;;;;;;10.44;60.38;99562.38;5561948;32;33554;-57
2021/12/01 12:21:24;;;;;;;8.20;4.32;;;;;;;10.48;60.38;99558.00;5563943;32;33753;-58
2021/12/01 12:24:41;;;;;;;10.32;3.72;;;;;;;10.48;60.78;99563.34;5560098;32;33677;-57
2021/12/01 12:27:46;;;;;;;8.25;4.28;;;;;;;10.63;64.42;99552.31;5558576;32;34377;-57
2021/12/01 12:30:50;;;;;;;7.87;4.35;;;;;;;10.60;61.58;99565.53;5556105;32;33998;-58
2021/12/01 12:33:55;;;;;;;11.27;5.03;;;;;;;10.60;60.45;99569.00;5561376;32;33341;-57
2021/12/01 12:36:59;;;;;;;11.27;4.47;;;;;;;10.77;61.11;99558.44;5556633;32;34333;-58
2021/12/01 12:40:06;;;;;;;7.28;4.22;;;;;;;10.76;58.95;99562.22;5561462;32;34288;-57
2021/12/01 12:43:14;;;;;;;7.30;4.05;;;;;;;10.86;59.88;99549.69;5551080;32;33699;-58
2021/12/01 12:46:19;;;;;;;12.73;3.95;;;;;;;10.84;58.13;99546.53;5560781;31;33381;-57
2021/12/01 12:49:39;;;;;;;8.05;3.65;;;;;;;10.77;58.58;99536.22;5587470;31;33596;-58
2021/12/01 12:52:50;;;;;;;7.70;3.72;;;;;;;10.72;58.44;99530.94;5587699;31;33613;-58
2021/12/01 12:55:52;;;;;;;7.87;3.75;;;;;;;10.81;62.12;99529.13;5570500;31;34410;-58
2021/12/01 12:59:26;;;;;;;6.97;4.00;;;;;;;10.83;59.52;99529.66;5577277;31;34371;-58
2021/12/01 13:02:30;;;;;;;6.40;3.62;;;;;;;10.85;59.09;99519.41;5574270;31;33695;-58
2021/12/01 13:05:38;;;;;;;8.48;4.10;;;;;;;10.82;57.65;99515.41;5552986;32;34283;-57
2021/12/01 13:08:43;;;;;;;11.35;4.65;;;;;;;10.91;58.80;99512.03;5554094;32;33777;-58
2021/12/01 13:11:46;;;;;;;9.40;4.12;;;;;;;10.82;57.78;99520.00;5551096;32;33661;-58
2021/12/01 13:14:48;;;;;;;8.70;4.95;;;;;;;10.73;58.31;99514.56;5548441;32;33709;-58
2021/12/01 13:18:04;;;;;;;13.52;6.78;;;;;;;10.76;58.89;99518.53;5548375;32;33731;-58
2021/12/01 13:21:09;;;;;;;10.20;4.55;;;;;;;10.93;60.05;99512.53;5548596;32;33800;-58
2021/12/01 13:24:12;;;;;;;11.45;4.72;;;;;;;10.81;57.65;99521.09;5549798;32;33714;-58
2021/12/01 13:27:14;;;;;;;10.90;5.07;;;;;;;10.70;58.38;99515.19;5550903;32;33714;-58
2021/12/01 13:30:16;;;;;;;9.15;4.37;;;;;;;10.70;58.47;99509.81;5550679;32;34387;-58
2021/12/01 13:33:19;;;;;;;12.73;6.47;;;;;;;10.71;57.51;99507.91;5550892;32;34332;-58
2021/12/01 13:36:24;;;;;;;10.60;3.83;;;;;;;10.73;57.45;99506.53;5550347;32;34318;-58
2021/12/01 13:39:30;;;;;;;17.77;9.15;;;;;;;10.77;59.93;99514.75;5550777;32;34364;-58
2021/12/01 13:42:32;;;;;;;9.25;3.62;;;;;;;10.64;57.88;99513.69;5550564;32;33826;-57
2021/12/01 13:45:35;;;;;;;6.82;3.83;;;;;;;10.55;58.27;99508.25;5550722;32;33665;-57
2021/12/01 13:48:50;;;;;;;8.85;4.07;;;;;;;10.56;58.47;99503.69;5550990;32;33334;-58
2021/12/01 13:51:52;;;;;;;6.62;3.95;;;;;;;10.58;58.15;99506.84;5550794;32;34484;-58
2021/12/01 13:55:12;;;;;;;8.73;4.30;;;;;;;10.60;57.62;99499.31;5550735;32;33717;-57
2021/12/01 13:58:19;;;;;;;8.73;4.78;;;;;;;10.59;60.20;99489.66;5550756;32;34373;-59
2021/12/01 14:01:21;;;;;;;7.50;4.40;;;;;;;10.53;58.49;99488.22;5550683;32;34297;-58
2021/12/01 14:04:28;;;;;;;9.90;5.07;;;;;;;10.56;60.14;99495.63;5550609;32;34305;-58
2021/12/01 14:07:47;;;;;;;10.25;8.23;;;;;;;10.69;59.14;99494.81;5550651;32;34325;-58
2021/12/01 14:10:58;;;;;;;8.95;5.72;;;;;;;10.65;59.92;99495.72;5569870;32;33745;-57
2021/12/01 14:14:03;;;;;;;8.93;5.80;;;;;;;10.60;59.57;99501.22;5569905;32;34280;-58
2021/12/01 14:17:06;;;;;;;11.73;6.00;;;;;;;10.58;61.03;99486.22;5569256;32;34858;-58
2021/12/01 14:20:14;;;;;;;11.23;5.95;;;;;;;10.68;62.80;99484.41;5558991;32;34330;-58
2021/12/01 14:23:16;;;;;;;9.65;5.37;;;;;;;10.69;66.58;99481.41;5550078;32;34418;-58
2021/12/01 14:26:40;;;;;;;12.55;6.50;;;;;;;10.70;64.95;99479.53;5550410;32;33757;-57
2021/12/01 14:29:42;;;;;;;7.10;5.10;;;;;;;10.72;61.94;99471.97;5548946;32;34400;-58
2021/12/01 14:32:47;;;;;;;14.05;6.40;;;;;;;10.79;68.96;99466.97;5549594;32;34319;-58
2021/12/01 14:36:03;;;;;;;17.17;11.60;;;;;;;10.79;63.39;99454.38;5548973;32;33627;-58
2021/12/01 14:39:07;;;;;;;11.50;6.05;;;;;;;10.75;61.15;99455.28;5549479;32;34521;-57
2021/12/01 14:42:10;;;;;;;12.40;5.25;;;;;;;10.64;60.13;99452.06;5548986;32;33672;-58
2021/12/01 14:45:14;;;;;;;15.57;5.53;;;;;;;10.67;60.55;99446.09;5549558;32;33735;-57
2021/12/01 14:48:17;;;;;;;11.27;6.22;;;;;;;10.67;63.49;99438.03;5549700;32;34265;-58
2021/12/01 14:51:31;;;;;;;10.00;5.43;;;;;;;10.93;59.54;99451.66;5549963;32;33637;-58
2021/12/01 14:54:36;;;;;;;12.10;6.20;;;;;;;10.81;59.67;99454.88;5549132;32;33705;-58
2021/12/01 14:57:51;;;;;;;11.23;6.87;;;;;;;10.86;70.16;99442.44;5549114;32;34427;-58
2021/12/01 15:00:59;;;;;;;14.20;7.35;;;;;;;10.67;62.57;99430.00;5549600;32;33740;-58
2021/12/01 15:04:08;;;;;;;12.23;7.32;;;;;;;10.74;64.30;99424.22;5548835;32;33630;-58
2021/12/01 15:07:12;;;;;;;15.70;8.80;;;;;;;10.79;62.86;99430.25;5549452;32;34427;-57
2021/12/01 15:10:33;;;;;;;12.27;7.57;;;;;;;10.74;63.00;99427.69;5549371;32;33999;-58
2021/12/01 15:13:43;;;;;;;13.73;8.25;;;;;;;10.71;61.86;99422.94;5549171;32;33703;-57
2021/12/01 15:16:46;;;;;;;13.32;7.50;;;;;;;10.62;61.95;99419.38;5549195;32;33955;-58
2021/12/01 15:20:09;;;;;;;13.18;7.57;;;;;;;10.65;61.62;99418.78;5564708;32;34383;-58
2021/12/01 15:23:12;;;;;;;11.65;7.05;;;;;;;10.65;61.65;99409.97;5569024;32;33949;-58
2021/12/01 15:26:20;;;;;;;10.88;6.70;;;;;;;10.62;65.62;99411.34;5559932;32;33650;-57
2021/12/01 15:29:30;;;;;;;15.88;7.28;;;;;;;10.58;62.26;99395.09;5549998;32;33412;-58
2021/12/01 15:32:41;;;;;;;19.65;8.55;;;;;;;10.45;63.51;99411.22;5549830;32;33820;-58
2021/12/01 15:35:44;;;;;;;21.12;8.68;;;;;;;10.46;63.20;99408.25;5549803;32;34403;-58
2021/12/01 15:38:47;;;;;;;19.17;7.80;;;;;;;10.45;62.51;99395.94;5549947;32;33681;-58
2021/12/01 15:41:50;;;;;;;14.25;7.97;;;;;;;10.41;71.86;99394.94;5549774;32;34268;-58
2021/12/01 15:44:52;;;;;;;17.23;10.23;;;;;;;10.21;67.87;99385.47;5548898;32;33599;-58
2021/12/01 15:47:55;;;;;;;22.15;11.38;;;;;;;10.35;67.40;99385.44;5549360;32;33716;-58
2021/12/01 15:50:58;;;;;;;23.00;11.82;;;;;;;10.19;66.29;99382.28;5549826;32;33689;-58
2021/12/01 15:54:00;;;;;;;23.20;11.63;;;;;;;10.31;64.37;99376.44;5549674;32;34277;-58
2021/12/01 15:57:03;;;;;;;19.52;12.23;;;;;;;10.21;66.93;99372.06;5549230;32;34392;-58
2021/12/01 16:00:08;;;;;;;24.73;13.57;;;;;;;10.19;65.10;99373.44;5549266;32;33672;-58
2021/12/01 16:03:13;;;;;;;20.85;13.60;;;;;;;10.16;66.96;99374.84;5549432;32;33788;-58
2021/12/01 16:06:17;;;;;;;17.58;11.60;;;;;;;10.11;65.69;99369.63;5549418;32;34321;-58
2021/12/01 16:09:22;;;;;;;18.87;11.82;;;;;;;10.09;66.85;99369.91;5549699;32;33684;-58
2021/12/01 16:12:25;;;;;;;23.80;12.97;;;;;;;10.12;64.71;99358.59;5549647;32;33837;-58
2021/12/01 16:15:27;;;;;;;25.23;14.02;;;;;;;10.23;64.55;99366.41;5549695;32;33777;-58
2021/12/01 16:18:29;;;;;;;27.62;16.48;;;;;;;10.38;63.47;99363.41;5549496;32;33874;-58
2021/12/01 16:21:33;;;;;;;29.05;16.52;;;;;;;10.29;63.99;99341.91;5549554;32;33670;-58
2021/12/01 16:24:35;;;;;;;24.90;15.98;;;;;;;10.18;64.27;99355.81;5549912;32;33279;-58
2021/12/01 16:27:39;;;;;;;26.77;18.80;;;;;;;10.32;64.16;99346.66;5549561;32;33701;-58
2021/12/01 16:30:42;;;;;;;24.37;16.40;;;;;;;10.25;63.83;99338.22;5549531;32;34239;-58
2021/12/01 16:33:45;;;;;;;26.52;17.10;;;;;;;10.20;69.02;99332.19;5549114;32;33759;-58
2021/12/01 16:36:48;;;;;;;30.27;17.20;;;;;;;10.07;65.60;99333.81;5549371;32;33623;-58
2021/12/01 16:39:50;;;;;;;26.48;15.25;;;;;;;9.99;65.70;99339.88;5549137;32;33701;-58
2021/12/01 16:42:52;;;;;;;26.40;14.82;;;;;;;10.06;64.64;99337.59;5549213;32;34334;-58
2021/12/01 16:45:55;;;;;;;22.52;14.80;;;;;;;10.14;63.76;99328.06;5549160;32;34348;-58
2021/12/01 16:48:57;;;;;;;20.05;15.00;;;;;;;10.00;64.97;99330.75;5549339;32;33605;-58
2021/12/01 16:52:01;;;;;;;26.98;14.10;;;;;;;10.05;63.85;99323.41;5549181;32;34390;-58
